createdAt,value
2018-05-18T00:00:14.746Z,100740.53
2018-05-18T00:02:42.402Z,100739.31
2018-05-18T00:05:09.947Z,100731.64
2018-05-18T00:07:37.453Z,100730.39
2018-05-18T00:10:05.163Z,100732.63
2018-05-18T00:12:32.740Z,100734.38
2018-05-18T00:15:00.304Z,100725.33
2018-05-18T00:17:27.810Z,100720.78
2018-05-18T00:19:55.346Z,100718.97
2018-05-18T00:22:22.859Z,100716.13
2018-05-18T00:24:50.383Z,100716.34
2018-05-18T00:27:17.894Z,100716.80
2018-05-18T00:29:45.428Z,100723.19
2018-05-18T00:32:12.930Z,100724.94
2018-05-18T00:34:40.502Z,100726.64
2018-05-18T00:37:08.038Z,100732.95
2018-05-18T00:39:35.579Z,100722.88
2018-05-18T00:42:03.099Z,100726.03
2018-05-18T00:44:30.631Z,100723.30
2018-05-18T00:46:58.419Z,100727.16
2018-05-18T00:49:26.035Z,100732.78
2018-05-18T00:51:53.649Z,100728.16
2018-05-18T00:54:21.178Z,100729.52
2018-05-18T00:56:48.688Z,100724.77
2018-05-18T00:59:16.236Z,100729.56
2018-05-18T01:01:43.803Z,100731.70
2018-05-18T01:04:11.349Z,100727.27
2018-05-18T01:06:39.136Z,100729.14
2018-05-18T01:09:06.659Z,100729.70
2018-05-18T01:11:34.183Z,100732.09
2018-05-18T01:14:01.721Z,100728.66
2018-05-18T01:16:29.286Z,100726.78
2018-05-18T01:18:56.811Z,100725.74
2018-05-18T01:21:24.356Z,100725.88
2018-05-18T01:23:51.863Z,100722.13
2018-05-18T01:26:19.443Z,100716.44
2018-05-18T01:28:47.038Z,100720.05
2018-05-18T01:31:14.594Z,100724.67
2018-05-18T01:33:42.132Z,100721.51
2018-05-18T01:36:09.652Z,100715.84
2018-05-18T01:38:37.156Z,100715.16
2018-05-18T01:41:04.675Z,100719.80
2018-05-18T01:43:32.220Z,100719.39
2018-05-18T01:45:59.747Z,100722.79
2018-05-18T01:48:27.287Z,100719.22
2018-05-18T01:50:54.830Z,100720.84
2018-05-18T01:53:22.331Z,100719.19
2018-05-18T01:55:49.885Z,100718.91
2018-05-18T01:58:17.410Z,100713.48
2018-05-18T02:00:44.956Z,100710.72
2018-05-18T02:03:12.463Z,100718.66
2018-05-18T02:05:39.998Z,100710.54
2018-05-18T02:08:07.510Z,100715.33
2018-05-18T02:10:35.090Z,100721.44
2018-05-18T02:13:02.638Z,100720.98
2018-05-18T02:15:30.197Z,100714.50
2018-05-18T02:17:57.692Z,100715.98
2018-05-18T02:20:25.207Z,100720.33
2018-05-18T02:22:52.716Z,100714.28
2018-05-18T02:25:20.314Z,100715.67
2018-05-18T02:27:47.858Z,100716.75
2018-05-18T02:30:15.406Z,100716.51
2018-05-18T02:32:42.994Z,100713.18
2018-05-18T02:35:10.539Z,100717.23
2018-05-18T02:37:38.087Z,100721.02
2018-05-18T02:40:05.670Z,100719.91
2018-05-18T02:42:33.200Z,100722.55
2018-05-18T02:45:00.775Z,100719.77
2018-05-18T02:47:28.602Z,100723.59
2018-05-18T02:49:56.102Z,100726.72
2018-05-18T02:52:23.712Z,100727.79
2018-05-18T02:54:51.206Z,100725.19
2018-05-18T02:57:19.691Z,100726.44
2018-05-18T02:59:47.234Z,100726.30
2018-05-18T03:02:14.730Z,100722.97
2018-05-18T03:04:42.250Z,100724.80
2018-05-18T03:07:09.779Z,100724.80
2018-05-18T03:09:37.312Z,100717.61
2018-05-18T03:12:04.876Z,100718.02
2018-05-18T03:14:32.434Z,100714.14
2018-05-18T03:16:59.959Z,100717.27
2018-05-18T03:19:27.535Z,100722.68
2018-05-18T03:21:55.090Z,100726.78
2018-05-18T03:24:22.670Z,100723.13
2018-05-18T03:26:50.227Z,100724.28
2018-05-18T03:29:17.747Z,100722.51
2018-05-18T03:31:45.262Z,100722.64
2018-05-18T03:34:12.756Z,100722.54
2018-05-18T03:36:40.285Z,100720.31
2018-05-18T03:39:07.806Z,100729.88
2018-05-18T03:41:35.398Z,100725.58
2018-05-18T03:44:02.969Z,100728.22
2018-05-18T03:46:30.506Z,100724.52
2018-05-18T03:48:58.052Z,100724.59
2018-05-18T03:51:25.602Z,100732.27
2018-05-18T04:37:33.706Z,100765.52
2018-05-18T04:40:01.198Z,100764.41
2018-05-18T04:42:28.707Z,100760.77
2018-05-18T04:44:56.186Z,100757.80
2018-05-18T04:47:23.684Z,100757.84
2018-05-18T04:49:51.141Z,100769.78
2018-05-18T04:52:18.644Z,100767.61
2018-05-18T04:54:46.127Z,100766.37
2018-05-18T04:57:13.590Z,100766.33
2018-05-18T04:59:41.074Z,100776.88
2018-05-18T05:02:08.538Z,100767.97
2018-05-18T05:04:36.018Z,100765.57
2018-05-18T05:07:03.490Z,100771.33
2018-05-18T05:09:30.973Z,100773.02
2018-05-18T05:11:58.464Z,100773.56
2018-05-18T05:14:25.963Z,100777.23
2018-05-18T05:16:53.442Z,100771.19
2018-05-18T05:19:20.949Z,100771.69
2018-05-18T05:21:48.409Z,100775.28
2018-05-18T05:24:15.907Z,100773.09
2018-05-18T05:26:43.398Z,100774.55
2018-05-18T05:29:10.886Z,100778.59
2018-05-18T05:31:38.341Z,100778.50
2018-05-18T05:34:05.834Z,100777.94
2018-05-18T05:36:33.422Z,100778.32
2018-05-18T05:39:00.843Z,100775.97
2018-05-18T05:41:28.303Z,100782.20
2018-05-18T05:43:55.785Z,100789.05
2018-05-18T05:46:23.245Z,100793.85
2018-05-18T05:48:50.734Z,100788.26
2018-05-18T05:51:18.198Z,100794.12
2018-05-18T05:53:45.685Z,100787.81
2018-05-18T05:56:13.174Z,100790.96
2018-05-18T05:58:40.674Z,100793.87
2018-05-18T06:01:08.143Z,100795.49
2018-05-18T06:03:35.630Z,100786.80
2018-05-18T06:06:03.170Z,100792.91
2018-05-18T06:08:33.412Z,100789.93
2018-05-18T06:11:00.886Z,100795.61
2018-05-18T06:22:06.760Z,100814.16
2018-05-18T06:24:34.994Z,100803.92
2018-05-18T06:27:02.480Z,100808.16
2018-05-18T06:29:29.962Z,100803.44
2018-05-18T06:31:57.430Z,100809.20
2018-05-18T06:34:24.933Z,100806.95
2018-05-18T06:36:52.403Z,100816.91
2018-05-18T06:39:19.893Z,100813.83
2018-05-18T06:41:47.362Z,100816.02
2018-05-18T06:44:14.852Z,100815.73
2018-05-18T06:46:42.346Z,100823.26
2018-05-18T06:49:09.847Z,100821.26
2018-05-18T06:51:37.670Z,100819.03
2018-05-18T06:54:05.146Z,100828.80
2018-05-18T06:56:32.638Z,100828.77
2018-05-18T06:59:00.110Z,100827.89
2018-05-18T07:01:27.606Z,100826.56
2018-05-18T07:03:55.091Z,100831.75
2018-05-18T07:06:22.588Z,100829.24
2018-05-18T07:08:50.059Z,100834.23
2018-05-18T07:11:17.577Z,100838.45
2018-05-18T07:13:45.052Z,100834.29
2018-05-18T07:16:12.546Z,100830.50
2018-05-18T07:18:40.027Z,100825.95
2018-05-18T07:21:07.517Z,100832.50
2018-05-18T07:23:35.026Z,100834.48
2018-05-18T07:26:02.527Z,100826.07
2018-05-18T07:28:29.999Z,100836.92
2018-05-18T07:30:57.507Z,100840.51
2018-05-18T07:33:24.994Z,100841.48
2018-05-18T07:35:52.503Z,100837.66
2018-05-18T07:38:19.979Z,100833.95
2018-05-18T07:40:47.479Z,100837.94
2018-05-18T07:43:14.967Z,100838.28
2018-05-18T07:45:43.399Z,100842.97
2018-05-18T07:48:10.871Z,100841.72
2018-05-18T07:50:38.474Z,100837.92
2018-05-18T07:53:05.940Z,100834.41
2018-05-18T07:55:33.444Z,100834.94
2018-05-18T07:58:00.923Z,100840.06
2018-05-18T08:00:28.414Z,100835.80
2018-05-18T08:02:55.905Z,100835.14
2018-05-18T08:05:23.393Z,100834.34
2018-05-18T08:07:50.913Z,100840.70
2018-05-18T08:10:18.402Z,100838.60
2018-05-18T08:12:45.892Z,100837.94
2018-05-18T08:15:13.449Z,100838.73
2018-05-18T08:17:40.886Z,100833.98
2018-05-18T08:20:08.366Z,100830.67
2018-05-18T08:22:35.876Z,100838.02
2018-05-18T08:25:03.349Z,100838.57
2018-05-18T08:27:31.874Z,100838.27
2018-05-18T08:29:59.341Z,100844.30
2018-05-18T08:32:26.853Z,100847.88
2018-05-18T08:34:54.557Z,100836.67
2018-05-18T08:37:22.118Z,100837.88
2018-05-18T08:39:49.594Z,100834.67
2018-05-18T08:42:17.082Z,100839.14
2018-05-18T08:44:44.563Z,100838.94
2018-05-18T08:47:12.132Z,100842.78
2018-05-18T08:49:39.606Z,100845.81
2018-05-18T08:52:07.106Z,100834.18
2018-05-18T08:54:34.581Z,100835.88
2018-05-18T08:57:02.085Z,100834.80
2018-05-18T08:59:29.549Z,100828.50
2018-05-18T09:01:57.054Z,100830.50
2018-05-18T09:04:24.573Z,100833.20
2018-05-18T09:06:52.066Z,100826.97
2018-05-18T09:09:19.558Z,100824.75
2018-05-18T09:11:47.058Z,100828.28
2018-05-18T09:14:14.534Z,100822.45
2018-05-18T09:16:42.010Z,100829.58
2018-05-18T09:19:09.508Z,100825.95
2018-05-18T09:21:36.986Z,100828.72
2018-05-18T09:24:04.478Z,100824.47
2018-05-18T09:26:32.035Z,100825.05
2018-05-18T09:28:59.475Z,100822.99
2018-05-18T09:31:26.947Z,100828.33
2018-05-18T09:33:54.469Z,100825.47
2018-05-18T09:36:22.010Z,100815.84
2018-05-18T09:38:49.550Z,100824.16
2018-05-18T09:41:17.036Z,100824.41
2018-05-18T09:43:44.546Z,100831.90
2018-05-18T09:46:12.034Z,100823.23
2018-05-18T09:48:39.538Z,100820.13
2018-05-18T09:51:07.012Z,100826.40
2018-05-18T09:53:34.514Z,100814.34
2018-05-18T09:56:01.985Z,100826.11
2018-05-18T09:58:29.494Z,100821.16
2018-05-18T10:00:56.968Z,100823.83
2018-05-18T10:03:24.462Z,100823.44
2018-05-18T10:05:51.938Z,100826.89
2018-05-18T10:08:19.427Z,100830.44
2018-05-18T10:13:21.037Z,100832.52
2018-05-18T10:15:48.597Z,100827.25
2018-05-18T10:18:16.020Z,100835.45
2018-05-18T10:20:43.495Z,100825.50
2018-05-18T10:23:10.993Z,100827.18
2018-05-18T10:25:38.473Z,100823.66
2018-05-18T10:28:05.961Z,100819.95
2018-05-18T10:30:33.431Z,100820.13
2018-05-18T10:33:00.921Z,100816.98
2018-05-18T10:35:28.386Z,100803.45
2018-05-18T10:37:55.847Z,100815.80
2018-05-18T10:40:23.342Z,100812.15
2018-05-18T10:42:50.883Z,100817.52
2018-05-18T10:45:18.376Z,100810.59
2018-05-18T10:47:45.858Z,100810.36
2018-05-18T10:50:13.350Z,100812.36
2018-05-18T10:52:40.839Z,100814.80
2018-05-18T10:55:08.341Z,100810.16
2018-05-18T10:57:35.818Z,100805.04
2018-05-18T11:00:03.334Z,100798.72
2018-05-18T11:02:30.798Z,100793.70
2018-05-18T11:04:58.291Z,100791.98
2018-05-18T11:07:25.754Z,100797.08
2018-05-18T11:09:53.237Z,100793.16
2018-05-18T11:12:20.709Z,100792.98
2018-05-18T11:14:48.203Z,100789.09
2018-05-18T11:17:15.682Z,100791.08
2018-05-18T11:19:43.166Z,100783.28
2018-05-18T11:22:10.637Z,100775.33
2018-05-18T11:24:38.133Z,100775.51
2018-05-18T11:27:05.611Z,100784.27
2018-05-18T11:29:33.110Z,100777.92
2018-05-18T11:32:00.585Z,100769.05
2018-05-18T11:34:28.073Z,100766.88
2018-05-18T11:36:55.549Z,100774.58
2018-05-18T11:39:23.043Z,100770.30
2018-05-18T11:41:50.515Z,100761.95
2018-05-18T11:44:18.007Z,100762.38
2018-05-18T11:46:45.487Z,100755.90
2018-05-18T11:49:12.983Z,100752.52
2018-05-18T11:51:40.447Z,100757.98
2018-05-18T11:54:07.953Z,100748.20
2018-05-18T11:56:35.422Z,100745.75
2018-05-18T11:59:02.894Z,100739.65
2018-05-18T12:01:30.387Z,100747.84
2018-05-18T12:03:57.855Z,100745.23
2018-05-18T12:06:26.325Z,100747.06
2018-05-18T12:08:53.797Z,100748.13
2018-05-18T12:11:21.285Z,100747.98
2018-05-18T12:13:48.754Z,100747.40
2018-05-18T12:16:16.247Z,100746.55
2018-05-18T12:18:43.717Z,100743.48
2018-05-18T12:21:11.224Z,100737.00
2018-05-18T12:23:38.698Z,100725.29
2018-05-18T12:26:06.332Z,100735.91
2018-05-18T12:28:33.811Z,100745.16
2018-05-18T12:31:01.343Z,100739.31
2018-05-18T12:33:28.807Z,100738.28
2018-05-18T12:35:56.295Z,100731.20
2018-05-18T12:38:23.777Z,100727.15
2018-05-18T12:40:52.290Z,100721.61
2018-05-18T12:43:19.755Z,100717.81
2018-05-18T12:45:47.248Z,100716.38
2018-05-18T12:48:14.721Z,100704.19
2018-05-18T12:50:42.219Z,100715.28
2018-05-18T12:53:09.686Z,100707.09
2018-05-18T12:55:37.187Z,100705.77
2018-05-18T12:58:04.654Z,100712.66
2018-05-18T13:00:32.152Z,100702.22
2018-05-18T13:02:59.702Z,100701.48
2018-05-18T13:05:27.191Z,100701.42
2018-05-18T13:07:54.662Z,100709.61
2018-05-18T13:10:22.174Z,100711.55
2018-05-18T13:12:49.654Z,100704.48
2018-05-18T13:15:17.121Z,100705.59
2018-05-18T13:17:44.614Z,100697.31
2018-05-18T13:20:12.871Z,100706.64
2018-05-18T13:22:40.366Z,100711.39
2018-05-18T13:25:07.835Z,100700.94
2018-05-18T13:27:35.325Z,100696.36
2018-05-18T13:30:02.800Z,100691.69
2018-05-18T13:32:30.288Z,100693.20
2018-05-18T13:34:57.757Z,100681.35
2018-05-18T13:37:25.242Z,100686.94
2018-05-18T13:39:52.715Z,100694.50
2018-05-18T13:42:20.209Z,100682.74
2018-05-18T13:44:47.785Z,100690.77
2018-05-18T13:47:15.200Z,100684.13
2018-05-18T13:49:42.673Z,100688.92
2018-05-18T13:52:10.165Z,100679.84
2018-05-18T13:54:37.671Z,100664.34
2018-05-18T13:57:05.210Z,100678.41
2018-05-18T13:59:32.650Z,100679.28
2018-05-18T14:02:00.197Z,100672.06
2018-05-18T14:04:27.666Z,100667.00
2018-05-18T14:06:55.158Z,100676.16
2018-05-18T14:09:22.624Z,100674.66
2018-05-18T14:11:50.116Z,100681.27
2018-05-18T14:14:17.594Z,100678.63
2018-05-18T14:16:45.102Z,100677.05
2018-05-18T14:19:12.578Z,100672.17
2018-05-18T14:21:40.074Z,100674.01
2018-05-18T14:24:07.558Z,100671.89
2018-05-18T14:26:35.049Z,100672.80
2018-05-18T14:29:02.514Z,100667.49
2018-05-18T14:31:30.013Z,100662.19
2018-05-18T14:33:57.484Z,100664.13
2018-05-18T14:36:24.945Z,100663.83
2018-05-18T14:38:52.450Z,100660.75
2018-05-18T14:41:19.927Z,100653.22
2018-05-18T14:43:47.435Z,100657.25
2018-05-18T14:46:14.916Z,100661.79
2018-05-18T14:48:42.418Z,100658.31
2018-05-18T14:51:09.933Z,100654.52
2018-05-18T14:53:37.398Z,100655.03
2018-05-18T14:56:04.871Z,100653.30
2018-05-18T14:58:32.460Z,100660.41
2018-05-18T15:00:59.878Z,100659.16
2018-05-18T15:03:27.365Z,100658.34
2018-05-18T15:05:54.833Z,100652.70
2018-05-18T15:08:22.317Z,100654.59
2018-05-18T15:10:49.787Z,100648.98
2018-05-18T15:13:17.277Z,100650.13
2018-05-18T15:15:44.750Z,100646.23
2018-05-18T15:18:12.233Z,100643.86
2018-05-18T15:20:39.710Z,100649.03
2018-05-18T15:23:07.227Z,100653.55
2018-05-18T15:25:34.714Z,100650.77
2018-05-18T15:28:02.207Z,100645.22
2018-05-18T15:30:29.681Z,100651.66
2018-05-18T15:32:57.165Z,100650.73
2018-05-18T15:35:24.630Z,100651.34
2018-05-18T15:37:52.122Z,100646.84
2018-05-18T15:40:19.607Z,100650.63
2018-05-18T15:42:47.110Z,100652.39
2018-05-18T15:45:14.584Z,100647.50
2018-05-18T15:47:42.074Z,100644.74
2018-05-18T15:50:09.547Z,100645.95
2018-05-18T15:52:37.055Z,100647.83
2018-05-18T15:55:04.529Z,100640.25
2018-05-18T15:57:32.078Z,100646.69
2018-05-18T15:59:59.508Z,100644.11
2018-05-18T16:02:26.978Z,100643.57
2018-05-18T16:04:54.462Z,100648.64
2018-05-18T16:07:21.949Z,100648.91
2018-05-18T16:09:49.454Z,100647.25
2018-05-18T16:12:16.929Z,100649.31
2018-05-18T16:14:44.456Z,100644.15
2018-05-18T16:17:11.981Z,100635.84
2018-05-18T16:19:39.470Z,100634.80
2018-05-18T16:22:06.948Z,100631.59
2018-05-18T16:24:34.447Z,100630.45
2018-05-18T16:27:01.930Z,100635.39
2018-05-18T16:29:29.425Z,100631.98
2018-05-18T16:31:56.899Z,100631.58
2018-05-18T16:34:24.392Z,100626.75
2018-05-18T16:36:51.870Z,100627.84
2018-05-18T16:39:19.359Z,100629.02
2018-05-18T16:41:46.830Z,100629.01
2018-05-18T16:44:14.325Z,100631.06
2018-05-18T16:46:41.794Z,100628.63
2018-05-18T16:49:09.295Z,100619.77
2018-05-18T16:51:36.763Z,100631.27
2018-05-18T16:54:04.250Z,100633.03
2018-05-18T16:56:31.730Z,100642.30
2018-05-18T16:58:59.222Z,100633.98
2018-05-18T17:01:27.040Z,100634.17
2018-05-18T17:03:54.528Z,100629.48
2018-05-18T17:06:21.996Z,100635.94
2018-05-18T17:08:49.480Z,100635.02
2018-05-18T17:11:16.949Z,100631.83
2018-05-18T17:13:44.438Z,100643.53
2018-05-18T17:16:11.918Z,100636.12
2018-05-18T17:18:39.386Z,100637.61
2018-05-18T17:21:06.870Z,100641.55
2018-05-18T17:23:34.381Z,100631.47
2018-05-18T17:26:01.863Z,100634.05
2018-05-18T17:28:29.335Z,100635.75
2018-05-18T17:30:56.834Z,100635.19
2018-05-18T17:33:24.319Z,100626.34
2018-05-18T17:35:51.827Z,100634.69
2018-05-18T17:38:19.298Z,100637.84
2018-05-18T17:40:46.810Z,100637.48
2018-05-18T17:43:14.286Z,100638.59
2018-05-18T17:45:41.783Z,100633.41
2018-05-18T17:48:09.262Z,100634.66
2018-05-18T17:50:36.759Z,100641.66
2018-05-18T17:53:04.246Z,100645.52
2018-05-18T17:55:31.729Z,100636.90
2018-05-18T17:57:59.194Z,100637.18
2018-05-18T18:00:26.687Z,100637.39
2018-05-18T18:02:54.157Z,100631.45
2018-05-18T18:05:21.669Z,100635.59
2018-05-18T18:07:49.199Z,100638.14
2018-05-18T18:10:16.701Z,100632.95
2018-05-18T18:12:44.181Z,100637.34
2018-05-18T18:15:11.662Z,100634.78
2018-05-18T18:17:39.134Z,100642.25
2018-05-18T18:20:07.488Z,100635.89
2018-05-18T18:22:34.970Z,100633.27
2018-05-18T18:25:02.480Z,100630.70
2018-05-18T18:27:29.941Z,100630.77
2018-05-18T18:29:57.421Z,100627.59
2018-05-18T18:32:24.890Z,100629.34
2018-05-18T18:34:52.383Z,100627.54
2018-05-18T18:37:19.871Z,100625.23
2018-05-18T18:39:47.337Z,100626.25
2018-05-18T18:42:14.817Z,100627.69
2018-05-18T18:44:42.290Z,100630.39
2018-05-18T18:47:09.784Z,100633.13
2018-05-18T18:49:37.256Z,100634.91
2018-05-18T18:52:04.840Z,100632.74
2018-05-18T18:54:32.238Z,100630.42
2018-05-18T18:57:00.015Z,100630.56
2018-05-18T18:59:27.498Z,100636.80
2018-05-18T19:01:54.985Z,100640.90
2018-05-18T19:04:22.511Z,100638.03
2018-05-18T19:06:50.002Z,100636.67
2018-05-18T19:09:17.478Z,100641.04
2018-05-18T19:11:44.957Z,100640.50
2018-05-18T19:14:12.434Z,100643.52
2018-05-18T19:16:39.922Z,100642.94
2018-05-18T19:19:07.395Z,100646.23
2018-05-18T19:21:34.885Z,100645.91
2018-05-18T19:24:02.366Z,100651.66
2018-05-18T19:26:29.854Z,100646.05
2018-05-18T19:28:57.329Z,100646.33
2018-05-18T19:31:24.860Z,100647.92
2018-05-18T19:33:52.344Z,100647.39
2018-05-18T19:36:19.839Z,100648.02
2018-05-18T19:38:47.570Z,100648.45
2018-05-18T19:41:15.088Z,100649.48
2018-05-18T19:43:42.619Z,100650.73
2018-05-18T19:46:10.058Z,100646.85
2018-05-18T19:48:37.533Z,100648.09
2018-05-18T19:51:05.030Z,100646.58
2018-05-18T19:53:32.514Z,100650.95
2018-05-18T19:56:00.006Z,100642.20
2018-05-18T19:58:27.486Z,100654.84
2018-05-18T20:00:54.953Z,100649.27
2018-05-18T20:03:22.434Z,100651.63
2018-05-18T20:05:50.632Z,100654.33
2018-05-18T20:08:18.128Z,100647.09
2018-05-18T20:10:45.601Z,100648.42
2018-05-18T20:13:13.134Z,100645.18
2018-05-18T20:15:40.840Z,100647.25
2018-05-18T20:18:08.326Z,100641.78
2018-05-18T20:20:35.794Z,100648.67
2018-05-18T20:23:03.281Z,100647.00
2018-05-18T20:25:30.753Z,100648.17
2018-05-18T20:27:58.244Z,100647.48
2018-05-18T20:30:25.721Z,100656.05
2018-05-18T20:32:53.211Z,100659.95
2018-05-18T20:35:20.692Z,100658.00
2018-05-18T20:37:48.182Z,100663.72
2018-05-18T20:40:15.646Z,100662.84
2018-05-18T20:42:43.139Z,100660.80
2018-05-18T20:45:10.639Z,100662.93
2018-05-18T20:47:38.106Z,100660.42
2018-05-18T20:50:05.574Z,100663.91
2018-05-18T20:52:33.062Z,100664.97
2018-05-18T20:55:00.528Z,100667.81
2018-05-18T20:57:28.016Z,100664.73
2018-05-18T20:59:55.486Z,100664.83
2018-05-18T21:02:22.986Z,100666.83
2018-05-18T21:04:50.455Z,100663.10
2018-05-18T21:07:17.944Z,100659.34
2018-05-18T21:09:45.439Z,100664.68
2018-05-18T21:12:12.905Z,100668.67
2018-05-18T21:14:40.391Z,100665.80
2018-05-18T21:17:07.882Z,100664.44
2018-05-18T21:19:35.370Z,100671.94
2018-05-18T21:22:02.845Z,100666.97
2018-05-18T21:24:30.336Z,100669.19
2018-05-18T21:26:57.800Z,100669.22
2018-05-18T21:29:25.337Z,100672.20
2018-05-18T21:31:52.809Z,100668.51
2018-05-18T21:34:20.297Z,100673.69
2018-05-18T21:36:47.759Z,100669.48
2018-05-18T21:39:15.259Z,100674.56
2018-05-18T21:41:42.735Z,100678.50
2018-05-18T21:44:10.206Z,100679.92
2018-05-18T21:46:37.698Z,100683.67
2018-05-18T21:49:05.170Z,100681.48
2018-05-18T21:51:32.658Z,100678.77
2018-05-18T21:54:00.485Z,100673.62
2018-05-18T21:56:27.971Z,100681.78
2018-05-18T21:58:55.438Z,100679.00
2018-05-18T22:01:22.933Z,100679.34
2018-05-18T22:03:50.405Z,100685.31
2018-05-18T22:06:17.890Z,100690.44
2018-05-18T22:08:45.371Z,100693.64
2018-05-18T22:11:12.857Z,100694.86
2018-05-18T22:13:40.322Z,100693.27
2018-05-18T22:16:07.847Z,100690.95
2018-05-18T22:18:35.355Z,100687.52
2018-05-18T22:21:02.841Z,100694.59
2018-05-18T22:23:30.310Z,100691.73
2018-05-18T22:25:57.809Z,100691.97
2018-05-18T22:28:25.284Z,100693.84
2018-05-18T22:30:52.750Z,100692.78
2018-05-18T22:33:20.236Z,100696.46
2018-05-18T22:35:47.710Z,100700.41
